North Yarmouth, ME

8:13 AM EDT on August 04, 2015 (GMT -0400)
North Yarmouth | | Change Station
CLOSE
Current Station
Personal Weather Station
Location: North Yarmouth, ME
Elevation: 141 ft
Nearby Weather Stations

Elev 141 ft 43.88 °N, 70.23 °W | Updated 9 minutes ago

Partly Cloudy
Partly Cloudy
65.7 °F
Feels Like 65.7 °F
N
0.0
Wind Variable Wind from East
Gusts 0.0 mph

Today
High -- | Low -- °F
--% Chance of Precip.
Yesterday
High -- | Low -- °F
Precip. -- in
5:32 AM 8:01 PM
Waning Gibbous, 78% visible
Pressure 29.82 in
Visibility 10.0 miles
Clouds Scattered Clouds 12000 ft
Dew Point 65 °F
Humidity 98%
Rainfall 0.02 in
Snow Depth Not available.
UV 2 out of 12
Pollen 4.90 out of 12
Air Quality Not available.
Flu Activity Not available.
METAR KLEW 041155Z 00000KT 10SM SCT120 18/17 A2982 RMK AO1 70007 10180 20160 52003

More Conditions Fewer Conditions

Pressure 29.82 in
Visibility 10.0 miles
Clouds Scattered Clouds 12000 ft
Dew Point 65 °F
Humidity 98%
Rainfall 0.02 in
Snow Depth Not available.
UV 2 out of 12
Pollen 4.90 out of 12
Air Quality Not available.
Flu Activity Not available.
METAR KLEW 041155Z 00000KT 10SM SCT120 18/17 A2982 RMK AO1 70007 10180 20160 52003

More Conditions Fewer Conditions

10-Day Weather Forecast

×

Almanac

Astronomy

Aug. 04, 2015 Rise Set
Actual Time
Civil Twilight
Nautical Twilight
Astronomical Twilight
Moon
Length of Visible Light
Length of Day
Tomorrow will be .
, % of the Moon is Illuminated

Today's Extremes

State Highs State Lows

Community

WunderPhotos

Upload Photos

1,843,907 photos uploaded!

WunderBlogs® & News

Nearby

Air Quality

  Air Quality AQ Index Pollutant
Not available.

Snow Depth

Station Depth Elevation

Earthquake Activity

City Distance Mag. Time & Date
Minimum magnitude displayed is 2.5.

Coastal Water Temperatures

Place Temperature

Stations

Nearby Weather Stations

Station Location Temp. Windchill Dew Point Humidity Wind Precip. Elev Updated Type